Time;durP1;ratioP1;P1;durP2;ratioP2;P2;SDS_P1;SDS_P2;PMS_P1;PMS_P2;Temp;Humidity;BMP_temperature;BMP_pressure;BME280_temperature;BME280_humidity;BME280_pressure;Samples;Min_cycle;Max_cycle;Signal;HPM_P1;HPM_P2
2021/09/03 00:02:22;;;;;;;27.13;15.75;;;9.70;99.90;;;;;;5075667;28;20055;-88
2021/09/03 00:04:49;;;;;;;33.20;17.50;;;9.70;99.90;;;;;;5074594;28;20102;-88
2021/09/03 00:07:17;;;;;;;30.95;17.42;;;9.70;99.90;;;;;;5056948;28;20052;-88
2021/09/03 00:09:43;;;;;;;28.83;16.77;;;9.60;99.90;;;;;;5057366;28;20123;-88
2021/09/03 00:12:10;;;;;;;26.33;16.92;;;9.60;99.90;;;;;;5057629;28;20050;-88
2021/09/03 00:14:37;;;;;;;23.73;15.57;;;9.60;99.90;;;;;;5057512;28;20046;-88
2021/09/03 00:17:04;;;;;;;30.60;16.42;;;9.50;99.90;;;;;;5057352;28;20064;-88
2021/09/03 00:19:31;;;;;;;25.55;16.73;;;9.50;99.90;;;;;;5057596;28;20083;-88
2021/09/03 00:21:58;;;;;;;27.73;16.50;;;9.60;99.90;;;;;;5057317;28;20055;-88
2021/09/03 00:24:25;;;;;;;25.52;16.02;;;9.70;99.90;;;;;;5074907;28;20079;-88
2021/09/03 00:26:52;;;;;;;23.10;15.68;;;9.70;99.90;;;;;;5057202;28;20135;-88
2021/09/03 00:29:19;;;;;;;29.95;15.40;;;9.80;99.90;;;;;;5053770;28;20471;-88
2021/09/03 00:31:45;;;;;;;22.38;15.02;;;9.80;99.90;;;;;;5054146;28;20110;-88
2021/09/03 00:34:12;;;;;;;26.38;15.45;;;9.70;99.90;;;;;;5053718;28;20041;-88
2021/09/03 00:36:39;;;;;;;26.02;15.32;;;9.60;99.90;;;;;;5053192;28;20049;-88
2021/09/03 00:39:07;;;;;;;27.13;15.68;;;9.60;99.90;;;;;;5053655;28;20067;-88
2021/09/03 00:41:34;;;;;;;30.52;16.75;;;9.50;99.90;;;;;;5053938;28;20077;-88
2021/09/03 00:44:01;;;;;;;30.90;15.95;;;9.40;99.90;;;;;;5053891;28;20060;-88
2021/09/03 00:46:27;;;;;;;27.38;17.42;;;9.40;99.90;;;;;;5053316;28;20080;-88
2021/09/03 00:48:56;;;;;;;24.27;17.17;;;9.40;99.90;;;;;;5053479;28;20045;-88
2021/09/03 00:51:24;;;;;;;25.15;15.60;;;9.40;99.90;;;;;;5053302;28;20055;-88
2021/09/03 00:53:51;;;;;;;35.22;17.42;;;9.40;99.90;;;;;;5053415;28;20047;-88
2021/09/03 00:56:18;;;;;;;24.90;16.20;;;9.30;99.90;;;;;;5053182;28;20167;-88
2021/09/03 00:58:44;;;;;;;26.00;17.00;;;9.40;99.90;;;;;;5053205;28;20053;-88
2021/09/03 01:01:11;;;;;;;31.40;17.65;;;9.40;99.90;;;;;;5054138;28;20045;-88
2021/09/03 01:03:38;;;;;;;28.35;17.08;;;9.40;99.90;;;;;;5052992;28;20052;-88
2021/09/03 01:06:05;;;;;;;31.50;18.00;;;9.50;99.90;;;;;;5052784;28;20041;-88
2021/09/03 01:08:32;;;;;;;35.25;19.10;;;9.60;99.90;;;;;;5053738;28;20049;-88
2021/09/03 01:10:59;;;;;;;29.83;18.13;;;9.70;99.90;;;;;;5053632;28;20048;-88
2021/09/03 01:13:27;;;;;;;31.88;17.42;;;9.60;99.90;;;;;;5052850;28;20048;-88
2021/09/03 01:15:53;;;;;;;39.75;19.95;;;9.70;99.90;;;;;;5052768;28;20495;-89
2021/09/03 01:18:20;;;;;;;27.60;17.25;;;9.60;99.90;;;;;;5052628;28;20053;-88
2021/09/03 01:20:47;;;;;;;31.83;17.35;;;9.60;99.90;;;;;;5052396;28;20044;-88
2021/09/03 01:23:14;;;;;;;26.00;16.67;;;9.70;99.90;;;;;;5052611;28;20488;-88
2021/09/03 01:25:41;;;;;;;28.20;18.00;;;9.80;99.90;;;;;;5053701;28;20053;-88
2021/09/03 01:28:08;;;;;;;30.20;18.02;;;9.90;99.90;;;;;;5052533;28;20143;-88
2021/09/03 01:30:34;;;;;;;24.75;16.33;;;9.90;99.90;;;;;;5052574;28;20427;-88
2021/09/03 01:33:02;;;;;;;26.10;16.85;;;10.00;99.90;;;;;;5052527;28;20068;-88
2021/09/03 01:35:28;;;;;;;26.05;16.20;;;10.00;99.90;;;;;;5053456;28;20041;-88
2021/09/03 01:37:55;;;;;;;26.10;15.77;;;10.10;99.90;;;;;;5052446;28;20486;-88
2021/09/03 01:40:22;;;;;;;24.73;16.42;;;10.10;99.90;;;;;;5052586;28;20088;-88
2021/09/03 01:42:49;;;;;;;24.02;15.65;;;10.20;99.90;;;;;;5052501;28;20045;-87
2021/09/03 01:45:16;;;;;;;23.83;15.88;;;10.20;99.90;;;;;;5053287;28;20079;-88
2021/09/03 01:47:43;;;;;;;20.33;15.48;;;10.20;99.90;;;;;;5052314;28;20041;-88
2021/09/03 01:50:09;;;;;;;24.95;14.85;;;10.20;99.90;;;;;;5052535;28;20514;-88
2021/09/03 01:52:36;;;;;;;27.38;15.93;;;10.20;99.90;;;;;;5052315;28;20132;-89
2021/09/03 01:55:03;;;;;;;24.80;16.70;;;10.20;99.90;;;;;;5052386;28;20052;-87
2021/09/03 01:57:31;;;;;;;21.75;15.27;;;10.30;99.90;;;;;;5053195;28;20075;-88
2021/09/03 01:59:58;;;;;;;20.33;14.60;;;10.30;99.90;;;;;;5052034;28;20132;-88
2021/09/03 02:02:25;;;;;;;25.73;14.75;;;10.30;99.90;;;;;;5052098;28;20406;-88
2021/09/03 02:04:52;;;;;;;19.23;13.52;;;10.30;99.90;;;;;;5052092;28;20103;-88
2021/09/03 02:07:18;;;;;;;19.38;13.23;;;10.30;99.90;;;;;;5053063;28;20212;-87
2021/09/03 02:09:45;;;;;;;18.77;13.18;;;10.40;99.90;;;;;;5053000;28;20135;-88
2021/09/03 02:12:12;;;;;;;18.08;13.60;;;10.30;99.90;;;;;;5051920;28;20041;-88
2021/09/03 02:14:41;;;;;;;22.05;14.55;;;10.40;99.90;;;;;;5051617;28;20152;-88
2021/09/03 02:17:08;;;;;;;22.52;14.90;;;10.40;99.90;;;;;;5051917;28;20045;-88
2021/09/03 02:19:35;;;;;;;18.40;14.38;;;10.40;99.90;;;;;;5052915;28;20076;-88
2021/09/03 02:22:02;;;;;;;25.50;14.98;;;10.50;99.90;;;;;;5053584;28;20496;-88
2021/09/03 02:24:29;;;;;;;22.35;14.98;;;10.50;99.90;;;;;;5055609;28;20051;-88
2021/09/03 02:26:56;;;;;;;18.40;14.15;;;10.50;99.90;;;;;;5055463;28;20055;-88
2021/09/03 02:29:23;;;;;;;19.75;13.70;;;10.50;99.90;;;;;;5055993;28;20049;-88
2021/09/03 02:31:51;;;;;;;23.05;13.90;;;10.50;99.90;;;;;;5057079;28;20067;-88
2021/09/03 02:34:17;;;;;;;25.60;15.20;;;10.50;99.90;;;;;;5055941;28;20482;-87
2021/09/03 02:36:45;;;;;;;23.00;14.77;;;10.50;99.90;;;;;;5056609;28;20416;-88
2021/09/03 02:39:12;;;;;;;23.70;14.95;;;10.50;99.90;;;;;;5055608;28;20055;-88
2021/09/03 02:41:39;;;;;;;20.70;13.57;;;10.50;99.90;;;;;;5055515;28;20053;-88
2021/09/03 02:44:05;;;;;;;20.23;14.07;;;10.50;99.90;;;;;;5055347;28;20056;-88
2021/09/03 02:46:32;;;;;;;20.38;14.13;;;10.60;99.90;;;;;;5056367;28;20045;-88
2021/09/03 02:48:59;;;;;;;18.58;14.23;;;10.60;99.90;;;;;;5056738;28;20053;-88
2021/09/03 02:51:26;;;;;;;21.25;13.68;;;10.60;99.90;;;;;;5055629;28;20517;-89
2021/09/03 02:53:53;;;;;;;20.45;14.52;;;10.60;99.90;;;;;;5055707;28;20045;-88
2021/09/03 02:56:20;;;;;;;22.25;13.77;;;10.60;99.90;;;;;;5055199;28;20060;-89
2021/09/03 02:58:46;;;;;;;19.20;13.68;;;10.70;99.90;;;;;;5055142;28;20053;-89
2021/09/03 03:01:13;;;;;;;21.98;14.20;;;10.70;99.90;;;;;;5055604;28;20582;-88
2021/09/03 03:03:40;;;;;;;18.77;13.90;;;10.70;99.90;;;;;;5056283;28;20489;-88
2021/09/03 03:06:07;;;;;;;19.85;13.98;;;10.70;99.90;;;;;;5055219;28;20053;-88
2021/09/03 03:08:34;;;;;;;17.92;12.73;;;10.70;99.90;;;;;;5054862;28;20595;-88
2021/09/03 03:11:00;;;;;;;18.85;14.57;;;10.70;99.90;;;;;;5056150;28;20049;-89
2021/09/03 03:13:29;;;;;;;22.85;14.70;;;10.70;99.90;;;;;;5055259;28;20053;-88
2021/09/03 03:15:56;;;;;;;18.25;13.20;;;10.60;99.90;;;;;;5055176;28;20053;-89
2021/09/03 03:18:23;;;;;;;23.00;14.25;;;10.60;99.90;;;;;;5055120;28;20049;-88
2021/09/03 03:20:51;;;;;;;17.67;13.38;;;10.70;99.90;;;;;;5056245;28;20053;-88
2021/09/03 03:23:18;;;;;;;19.95;14.95;;;10.60;99.90;;;;;;5056011;28;20106;-88
2021/09/03 03:25:45;;;;;;;21.88;14.85;;;10.60;99.90;;;;;;5055051;28;20128;-88
2021/09/03 03:28:12;;;;;;;19.13;14.20;;;10.50;99.90;;;;;;5054988;28;20136;-89
2021/09/03 03:30:39;;;;;;;23.25;14.68;;;10.60;99.90;;;;;;5055933;28;20053;-89
2021/09/03 03:33:06;;;;;;;20.25;14.57;;;10.60;99.90;;;;;;5054940;28;20056;-89
2021/09/03 03:35:33;;;;;;;23.35;14.80;;;10.60;99.90;;;;;;5054791;28;20056;-89
2021/09/03 03:37:59;;;;;;;17.85;13.38;;;10.50;99.90;;;;;;5054802;28;20070;-89
2021/09/03 03:40:26;;;;;;;17.02;12.82;;;10.50;99.90;;;;;;5054825;28;20048;-88
2021/09/03 03:42:53;;;;;;;21.88;13.70;;;10.60;99.90;;;;;;5055018;28;20413;-88
2021/09/03 03:45:20;;;;;;;18.80;13.48;;;10.60;99.90;;;;;;5055787;28;20080;-88
2021/09/03 03:47:46;;;;;;;18.05;13.43;;;10.60;99.90;;;;;;5055006;28;20136;-88
2021/09/03 03:50:13;;;;;;;15.75;11.65;;;10.70;99.90;;;;;;5054750;28;20077;-88
2021/09/03 03:52:40;;;;;;;16.92;13.32;;;10.70;99.90;;;;;;5054601;28;20045;-88
2021/09/03 03:55:08;;;;;;;16.08;12.45;;;10.60;99.90;;;;;;5054712;28;20045;-88
2021/09/03 03:57:34;;;;;;;19.60;12.80;;;10.60;99.90;;;;;;5054656;28;20055;-88
2021/09/03 04:00:02;;;;;;;14.07;12.18;;;10.60;99.90;;;;;;5054568;28;20053;-88
2021/09/03 04:02:29;;;;;;;19.25;12.77;;;10.60;99.90;;;;;;5054450;28;20052;-88
2021/09/03 04:04:56;;;;;;;14.95;11.80;;;10.50;99.90;;;;;;5054146;28;20114;-89
2021/09/03 04:07:22;;;;;;;16.73;12.43;;;10.50;99.90;;;;;;5054305;28;20507;-86
2021/09/03 04:09:49;;;;;;;17.23;12.60;;;10.40;99.90;;;;;;5054498;28;20405;-88
2021/09/03 04:12:16;;;;;;;14.13;11.82;;;10.50;99.90;;;;;;5054402;28;20405;-88
2021/09/03 04:14:42;;;;;;;15.93;11.63;;;10.50;99.90;;;;;;5054094;28;20139;-88
2021/09/03 04:17:09;;;;;;;20.27;13.27;;;10.50;99.90;;;;;;5054129;28;20132;-88
2021/09/03 04:19:36;;;;;;;20.83;13.57;;;10.40;99.90;;;;;;5054784;28;20486;-88
2021/09/03 04:22:03;;;;;;;15.43;12.27;;;10.40;99.90;;;;;;5054007;28;20053;-88
2021/09/03 04:24:30;;;;;;;16.35;12.13;;;10.50;99.90;;;;;;5053869;28;20041;-88
2021/09/03 04:26:59;;;;;;;17.02;12.30;;;10.50;99.90;;;;;;5053825;28;20084;-89
2021/09/03 04:29:26;;;;;;;14.57;12.00;;;10.50;99.90;;;;;;5053832;28;20063;-89
2021/09/03 04:31:54;;;;;;;20.52;13.13;;;10.50;99.90;;;;;;5054716;28;20052;-88
2021/09/03 04:34:21;;;;;;;15.40;12.02;;;10.60;99.90;;;;;;5053678;28;20044;-88
2021/09/03 04:36:48;;;;;;;19.15;12.63;;;10.60;99.90;;;;;;5054421;28;20059;-88
2021/09/03 04:39:15;;;;;;;13.30;11.40;;;10.60;99.90;;;;;;5053765;28;20059;-89
2021/09/03 04:41:42;;;;;;;14.18;11.25;;;10.60;99.90;;;;;;5053701;28;20044;-88
2021/09/03 04:44:08;;;;;;;12.20;10.57;;;10.60;99.90;;;;;;5053152;28;20095;-88
2021/09/03 04:46:35;;;;;;;15.45;10.80;;;10.70;99.90;;;;;;5053026;28;20051;-88
2021/09/03 04:49:02;;;;;;;12.38;10.32;;;10.70;99.90;;;;;;5053431;28;20048;-89
2021/09/03 04:51:29;;;;;;;14.07;10.25;;;10.70;99.90;;;;;;5054432;28;20056;-88
2021/09/03 04:53:55;;;;;;;11.05;9.90;;;10.70;99.90;;;;;;5053621;28;20044;-88
2021/09/03 04:56:22;;;;;;;13.57;10.02;;;10.70;99.90;;;;;;5053334;28;20204;-88
2021/09/03 04:58:49;;;;;;;11.00;9.88;;;10.70;99.90;;;;;;5053053;28;20049;-88
2021/09/03 05:01:16;;;;;;;15.27;10.95;;;10.70;99.90;;;;;;5054068;28;20049;-88
2021/09/03 05:03:43;;;;;;;12.77;10.50;;;10.70;99.90;;;;;;5054398;28;20063;-88
2021/09/03 05:06:10;;;;;;;13.15;10.00;;;10.70;99.90;;;;;;5053349;28;20052;-89
2021/09/03 05:08:37;;;;;;;12.57;10.75;;;10.70;99.90;;;;;;5053200;28;20120;-89
2021/09/03 05:11:04;;;;;;;15.48;10.95;;;10.70;99.90;;;;;;5054164;28;20055;-88
2021/09/03 05:13:31;;;;;;;13.30;11.20;;;10.70;99.90;;;;;;5053109;28;20520;-88
2021/09/03 05:15:58;;;;;;;12.95;10.43;;;10.70;99.90;;;;;;5053005;28;20413;-88
2021/09/03 05:18:27;;;;;;;15.55;10.63;;;10.80;99.90;;;;;;5053131;28;20053;-88
2021/09/03 05:20:54;;;;;;;13.75;10.80;;;10.80;99.90;;;;;;5054233;28;20055;-88
2021/09/03 05:23:21;;;;;;;13.15;9.68;;;10.80;99.90;;;;;;5053137;28;20059;-88
2021/09/03 05:25:48;;;;;;;13.00;9.75;;;10.90;99.90;;;;;;5054332;28;20080;-88
2021/09/03 05:28:14;;;;;;;11.27;9.98;;;10.90;99.90;;;;;;5052922;28;20061;-88
2021/09/03 05:30:41;;;;;;;12.85;9.60;;;11.00;99.90;;;;;;5053033;28;20128;-88
2021/09/03 05:33:08;;;;;;;10.30;9.20;;;11.00;99.90;;;;;;5053047;28;20139;-88
2021/09/03 05:35:35;;;;;;;10.63;9.10;;;11.00;99.90;;;;;;5052953;28;20055;-88
2021/09/03 05:38:04;;;;;;;10.55;8.60;;;11.00;99.90;;;;;;5052947;28;20048;-88
2021/09/03 05:40:35;;;;;;;11.70;9.23;;;11.10;99.90;;;;;;5052945;28;20045;-88
2021/09/03 05:43:02;;;;;;;17.17;8.93;;;11.20;99.90;;;;;;5052793;28;20397;-88
2021/09/03 05:45:30;;;;;;;11.77;8.85;;;11.10;99.90;;;;;;5053725;28;20056;-88
2021/09/03 05:48:00;;;;;;;17.88;8.45;;;11.20;99.90;;;;;;5052791;28;20045;-87
2021/09/03 05:50:27;;;;;;;10.18;8.20;;;11.30;99.90;;;;;;5052764;28;20052;-88
2021/09/03 05:52:54;;;;;;;8.45;7.63;;;11.30;99.90;;;;;;5052752;28;20081;-88
2021/09/03 05:55:20;;;;;;;9.68;8.68;;;11.30;99.90;;;;;;5052700;28;20446;-88
2021/09/03 05:57:48;;;;;;;12.05;8.68;;;11.30;99.90;;;;;;5052530;28;20055;-88
2021/09/03 06:00:15;;;;;;;12.45;8.00;;;11.30;99.90;;;;;;5052359;28;20474;-88
2021/09/03 06:02:41;;;;;;;7.63;6.75;;;11.40;99.90;;;;;;5052368;28;20140;-88
2021/09/03 06:05:09;;;;;;;20.13;6.97;;;11.50;99.90;;;;;;5052338;28;20060;-88
2021/09/03 06:07:36;;;;;;;10.10;6.72;;;11.60;99.90;;;;;;5052324;28;20456;-88
2021/09/03 06:10:04;;;;;;;6.95;6.35;;;11.70;99.90;;;;;;5052429;28;20044;-88
2021/09/03 06:12:31;;;;;;;9.38;7.15;;;11.70;99.90;;;;;;5052545;28;20053;-88
2021/09/03 06:14:58;;;;;;;9.07;6.30;;;11.70;99.90;;;;;;5053469;28;20041;-88
2021/09/03 06:17:24;;;;;;;7.72;6.75;;;11.80;99.90;;;;;;5052289;28;20071;-88
2021/09/03 06:19:51;;;;;;;19.05;7.18;;;11.80;99.90;;;;;;5052532;28;20059;-88
2021/09/03 06:22:18;;;;;;;10.25;7.80;;;12.00;99.90;;;;;;5052221;28;20057;-88
2021/09/03 06:24:45;;;;;;;11.00;7.43;;;12.00;99.90;;;;;;5052045;28;20053;-88
2021/09/03 06:27:12;;;;;;;10.02;6.43;;;12.10;99.90;;;;;;5052083;28;20048;-88
2021/09/03 06:29:42;;;;;;;9.07;6.50;;;12.30;99.90;;;;;;5052110;28;20136;-89
2021/09/03 06:32:22;;;;;;;8.15;6.18;;;12.40;99.90;;;;;;5052461;28;20079;-89
2021/09/03 06:34:51;;;;;;;7.25;6.05;;;12.60;99.90;;;;;;5053131;28;20417;-88
2021/09/03 06:37:19;;;;;;;12.35;7.35;;;12.90;99.90;;;;;;5052943;28;20417;-87
2021/09/03 06:39:47;;;;;;;7.90;6.78;;;12.90;99.90;;;;;;5051955;28;20409;-87
2021/09/03 06:42:15;;;;;;;15.95;8.00;;;12.90;99.90;;;;;;5053045;28;20056;-87
2021/09/03 06:44:42;;;;;;;19.20;8.80;;;12.70;99.90;;;;;;5051940;28;20136;-88
2021/09/03 06:47:11;;;;;;;20.00;8.48;;;12.80;99.90;;;;;;5051898;28;20052;-87
2021/09/03 06:49:39;;;;;;;12.55;8.10;;;13.10;99.90;;;;;;5053095;28;20056;-87
2021/09/03 06:52:07;;;;;;;22.23;9.38;;;13.40;99.90;;;;;;5051914;28;20094;-87
2021/09/03 06:54:35;;;;;;;14.68;10.32;;;13.70;99.90;;;;;;5052060;28;20076;-88
2021/09/03 06:57:02;;;;;;;20.15;7.50;;;13.90;99.90;;;;;;5051972;28;20131;-87
2021/09/03 06:59:29;;;;;;;12.20;6.60;;;14.20;99.90;;;;;;5051760;28;20067;-88
2021/09/03 07:01:57;;;;;;;21.88;8.18;;;14.30;99.90;;;;;;5051832;28;20044;-87
2021/09/03 07:04:24;;;;;;;38.45;20.70;;;14.40;99.90;;;;;;5052897;28;20053;-88
2021/09/03 07:06:51;;;;;;;19.48;8.50;;;14.60;99.90;;;;;;5052092;28;20063;-88
2021/09/03 07:09:19;;;;;;;11.23;6.57;;;14.60;99.90;;;;;;5055508;28;20064;-88
2021/09/03 07:11:46;;;;;;;13.43;8.35;;;14.70;99.90;;;;;;5055781;28;20052;-87
2021/09/03 07:14:13;;;;;;;16.83;6.78;;;14.80;99.90;;;;;;5056373;28;20052;-87
2021/09/03 07:16:39;;;;;;;8.80;5.45;;;14.90;99.90;;;;;;5055555;28;20545;-87
2021/09/03 07:19:07;;;;;;;17.35;6.97;;;15.10;99.90;;;;;;5055391;28;20473;-87
2021/09/03 07:21:34;;;;;;;22.05;7.55;;;15.50;99.90;;;;;;5055358;28;20041;-88
2021/09/03 07:24:01;;;;;;;25.00;7.53;;;15.80;99.90;;;;;;5055208;28;20079;-88
2021/09/03 07:26:28;;;;;;;17.20;6.82;;;15.70;99.90;;;;;;5055168;28;20063;-88
2021/09/03 07:28:56;;;;;;;19.77;7.20;;;15.90;99.90;;;;;;5065791;28;20052;-87
2021/09/03 07:31:23;;;;;;;27.65;7.68;;;16.00;99.90;;;;;;5058575;28;20049;-87
2021/09/03 07:33:50;;;;;;;23.13;6.60;;;16.40;99.90;;;;;;5058517;28;20463;-88
2021/09/03 07:36:18;;;;;;;24.90;6.85;;;16.70;99.90;;;;;;5058553;28;20049;-87
2021/09/03 07:38:45;;;;;;;31.17;7.75;;;16.80;99.90;;;;;;5058391;28;20048;-88
2021/09/03 07:41:12;;;;;;;18.45;6.82;;;17.10;99.90;;;;;;5058243;28;20052;-88
2021/09/03 07:43:39;;;;;;;23.02;7.18;;;17.70;99.90;;;;;;5058259;28;20048;-88
2021/09/03 07:46:06;;;;;;;32.22;7.22;;;18.90;99.90;;;;;;5058434;28;20076;-88
2021/09/03 07:48:34;;;;;;;23.83;6.70;;;19.50;99.90;;;;;;5058283;28;20048;-86
2021/09/03 07:51:01;;;;;;;28.35;7.50;;;20.40;99.90;;;;;;5058303;28;20045;-86
2021/09/03 07:53:28;;;;;;;29.20;7.60;;;21.00;99.90;;;;;;5058186;28;20130;-86
2021/09/03 07:55:56;;;;;;;31.52;7.28;;;21.70;99.90;;;;;;5058199;28;20083;-86
2021/09/03 07:58:23;;;;;;;34.40;8.70;;;23.50;99.90;;;;;;5075678;28;20048;-86
2021/09/03 08:00:50;;;;;;;29.42;8.40;;;25.00;99.90;;;;;;5057730;28;20087;-86
2021/09/03 08:03:17;;;;;;;26.83;7.88;;;26.70;97.60;;;;;;5075497;28;20053;-86
2021/09/03 08:05:44;;;;;;;35.97;8.38;;;28.20;93.20;;;;;;5058213;28;20059;-86
2021/09/03 08:08:11;;;;;;;32.13;9.32;;;29.00;87.20;;;;;;5057926;28;20045;-87
2021/09/03 08:10:38;;;;;;;25.45;7.68;;;28.50;82.30;;;;;;5057884;28;20044;-87
2021/09/03 08:13:08;;;;;;;27.30;7.45;;;28.70;83.50;;;;;;5058082;28;20051;-86
2021/09/03 08:15:39;;;;;;;30.10;8.10;;;29.40;82.30;;;;;;5075646;28;20051;-87
2021/09/03 08:18:06;;;;;;;25.98;7.57;;;29.90;78.60;;;;;;5057917;28;20760;-88
2021/09/03 08:20:34;;;;;;;23.90;6.25;;;31.00;73.80;;;;;;5056486;28;20052;-88
2021/09/03 08:23:01;;;;;;;19.52;5.93;;;31.30;70.70;;;;;;5074913;28;20049;-87
2021/09/03 08:25:28;;;;;;;14.18;6.18;;;31.80;69.90;;;;;;5057540;28;20444;-88
2021/09/03 08:27:55;;;;;;;21.30;5.85;;;32.30;67.60;;;;;;5058343;28;20147;-89
2021/09/03 08:30:22;;;;;;;23.13;6.07;;;32.10;66.60;;;;;;5057458;28;20158;-87
2021/09/03 08:32:49;;;;;;;21.02;6.30;;;31.70;68.00;;;;;;5074672;28;20056;-89
2021/09/03 08:35:16;;;;;;;18.35;5.75;;;31.50;67.20;;;;;;5057133;28;20086;-87
2021/09/03 08:37:43;;;;;;;18.45;5.20;;;31.80;68.30;;;;;;5074976;28;20053;-87
2021/09/03 08:40:12;;;;;;;14.25;5.10;;;32.80;64.70;;;;;;5057047;28;20044;-87
2021/09/03 08:42:40;;;;;;;14.75;4.70;;;33.00;66.10;;;;;;5057070;28;20044;-87
2021/09/03 08:45:10;;;;;;;10.10;4.18;;;33.40;65.30;;;;;;5057095;28;20087;-87
2021/09/03 08:47:39;;;;;;;16.95;5.13;;;33.80;64.30;;;;;;5057036;28;20051;-87
2021/09/03 08:50:09;;;;;;;14.30;5.63;;;34.20;61.30;;;;;;5056703;28;20485;-87
2021/09/03 08:52:38;;;;;;;14.85;4.85;;;35.20;59.70;;;;;;5056943;28;20080;-86
2021/09/03 08:55:05;;;;;;;16.80;4.95;;;34.00;61.40;;;;;;5056684;28;20064;-87
2021/09/03 08:57:33;;;;;;;12.82;4.95;;;36.10;59.10;;;;;;5056536;28;20048;-87
2021/09/03 09:00:10;;;;;;;10.00;4.75;;;36.40;57.20;;;;;;5056672;28;20063;-88
2021/09/03 09:02:36;;;;;;;10.30;4.45;;;36.10;58.30;;;;;;5056482;28;20044;-87
2021/09/03 09:05:04;;;;;;;12.63;5.03;;;36.80;56.80;;;;;;5073691;28;20056;-87
2021/09/03 09:07:31;;;;;;;10.90;4.38;;;37.30;56.00;;;;;;5056455;28;20052;-88
2021/09/03 09:10:05;;;;;;;11.27;4.63;;;37.10;55.40;;;;;;5074300;28;20402;-88
2021/09/03 09:12:33;;;;;;;10.98;4.13;;;36.80;55.70;;;;;;5056326;28;20473;-89
2021/09/03 09:15:08;;;;;;;5.30;3.53;;;36.10;56.00;;;;;;5056295;28;20079;-88
2021/09/03 09:17:37;;;;;;;9.93;3.28;;;36.50;56.00;;;;;;5071820;28;20101;-89
2021/09/03 09:20:06;;;;;;;5.15;3.20;;;37.10;55.10;;;;;;5056113;28;20053;-91
2021/09/03 09:22:50;;;;;;;8.00;3.38;;;37.00;55.80;;;;;;5073634;28;20079;-88
2021/09/03 09:25:23;;;;;;;6.60;3.78;;;37.10;56.20;;;;;;5055875;28;20052;-88
2021/09/03 09:27:50;;;;;;;11.20;4.70;;;37.70;54.70;;;;;;5051196;28;20131;-89
2021/09/03 09:30:22;;;;;;;5.55;3.53;;;37.80;54.80;;;;;;5073138;28;20305;-89
2021/09/03 09:33:15;;;;;;;7.53;3.60;;;38.10;54.60;;;;;;5055636;28;20231;-89
2021/09/03 09:35:51;;;;;;;5.78;2.70;;;38.30;53.20;;;;;;5073320;28;20048;-91
2021/09/03 09:38:22;;;;;;;2.85;2.40;;;38.30;53.00;;;;;;5055674;28;20102;-92
2021/09/03 09:40:51;;;;;;;2.83;2.58;;;38.90;50.50;;;;;;5055621;28;20060;-90
2021/09/03 09:43:39;;;;;;;2.60;2.38;;;39.60;47.60;;;;;;5054670;28;20079;-91
2021/09/03 09:46:15;;;;;;;4.05;2.30;;;39.90;46.10;;;;;;5055817;28;20055;-91
2021/09/03 09:48:48;;;;;;;3.90;2.53;;;39.20;46.70;;;;;;5055170;28;20076;-88
2021/09/03 09:51:46;;;;;;;3.75;2.55;;;38.10;48.20;;;;;;5055703;28;20044;-92
2021/09/03 09:54:20;;;;;;;5.70;2.67;;;38.60;46.50;;;;;;5055722;28;20135;-89
2021/09/03 09:56:51;;;;;;;2.22;2.10;;;38.70;46.50;;;;;;5073116;28;20053;-88
2021/09/03 09:59:20;;;;;;;2.60;2.40;;;39.20;44.50;;;;;;5055521;28;20080;-88
2021/09/03 10:01:49;;;;;;;3.10;2.20;;;39.40;45.10;;;;;;5055462;28;20072;-90
2021/09/03 10:04:19;;;;;;;2.97;2.63;;;38.90;46.20;;;;;;5074117;28;20079;-88
2021/09/03 10:06:48;;;;;;;4.03;2.50;;;38.70;45.50;;;;;;5056125;28;20050;-88
2021/09/03 10:09:16;;;;;;;7.25;2.80;;;39.40;45.80;;;;;;5056592;28;20115;-89
2021/09/03 10:11:49;;;;;;;7.47;2.47;;;40.30;45.30;;;;;;5055966;28;20139;-88
2021/09/03 10:14:20;;;;;;;2.30;2.20;;;39.20;44.70;;;;;;5073616;28;20057;-88
2021/09/03 10:16:49;;;;;;;5.82;2.58;;;37.60;46.30;;;;;;5073748;28;20643;-86
2021/09/03 10:19:22;;;;;;;3.13;2.80;;;36.20;48.30;;;;;;5055954;28;20048;-87
2021/09/03 10:21:49;;;;;;;6.30;2.70;;;34.80;50.90;;;;;;5073322;28;20135;-86
2021/09/03 10:24:23;;;;;;;4.47;3.00;;;33.70;52.40;;;;;;5054970;28;20044;-86
2021/09/03 10:26:53;;;;;;;3.25;3.00;;;32.30;53.90;;;;;;5055381;28;20044;-87
2021/09/03 10:29:28;;;;;;;3.90;3.05;;;31.00;56.90;;;;;;5055169;28;20092;-86
2021/09/03 10:32:07;;;;;;;5.05;3.55;;;30.30;59.10;;;;;;5055176;28;20052;-84
2021/09/03 10:34:43;;;;;;;9.73;3.33;;;29.60;61.20;;;;;;5055084;28;20053;-86
2021/09/03 10:37:16;;;;;;;6.80;3.47;;;28.80;61.50;;;;;;5054333;28;20052;-86
2021/09/03 10:39:49;;;;;;;7.72;3.05;;;28.50;68.00;;;;;;5054773;28;20075;-85
2021/09/03 10:42:34;;;;;;;6.95;3.63;;;28.70;71.70;;;;;;5072702;28;20080;-85
2021/09/03 10:45:05;;;;;;;6.82;3.38;;;29.00;71.40;;;;;;5058597;28;20519;-86
2021/09/03 10:47:42;;;;;;;4.85;3.20;;;30.40;71.80;;;;;;5057355;28;20048;-86
2021/09/03 10:50:50;;;;;;;3.03;2.80;;;32.70;61.40;;;;;;5056794;28;20102;-86
2021/09/03 10:53:20;;;;;;;4.25;2.75;;;32.80;57.50;;;;;;5074379;28;20052;-89
2021/09/03 10:55:52;;;;;;;3.47;3.17;;;33.50;59.30;;;;;;5056824;28;20132;-87
2021/09/03 10:58:37;;;;;;;3.22;2.92;;;33.70;58.30;;;;;;5056963;28;20136;-87
2021/09/03 11:01:10;;;;;;;3.58;3.28;;;34.50;57.50;;;;;;5075466;28;20053;-89
2021/09/03 11:03:49;;;;;;;3.05;2.85;;;35.70;53.50;;;;;;5059119;28;20466;-88
2021/09/03 11:06:32;;;;;;;5.70;3.13;;;35.10;51.00;;;;;;5058791;28;20136;-87
2021/09/03 11:09:03;;;;;;;8.38;3.35;;;34.90;51.70;;;;;;5058683;28;20048;-87
2021/09/03 11:11:36;;;;;;;3.45;2.78;;;33.10;52.90;;;;;;5058852;28;20049;-86
2021/09/03 11:14:09;;;;;;;3.30;3.00;;;32.40;58.70;;;;;;5058847;28;20052;-86
2021/09/03 11:16:44;;;;;;;6.32;2.92;;;32.70;58.60;;;;;;5058345;28;20044;-86
2021/09/03 11:19:48;;;;;;;32.63;4.97;;;33.40;55.60;;;;;;5076119;28;20048;-86
2021/09/03 11:22:18;;;;;;;6.70;3.38;;;34.40;54.40;;;;;;5060192;28;20048;-87
2021/09/03 11:24:49;;;;;;;3.65;3.22;;;34.20;53.00;;;;;;5058266;28;20045;-88
2021/09/03 11:27:22;;;;;;;2.97;2.80;;;33.40;55.50;;;;;;5058315;28;20058;-87
2021/09/03 11:29:56;;;;;;;3.50;3.00;;;32.00;57.00;;;;;;5058257;28;20052;-88
2021/09/03 11:32:28;;;;;;;12.65;4.00;;;31.20;56.30;;;;;;5058231;28;20128;-88
2021/09/03 11:35:02;;;;;;;4.80;3.17;;;30.80;57.70;;;;;;5057888;28;20141;-89
2021/09/03 11:37:37;;;;;;;4.03;3.10;;;30.10;59.00;;;;;;5075586;28;20099;-87
2021/09/03 11:40:08;;;;;;;5.78;3.50;;;29.80;58.70;;;;;;5057855;28;20048;-87
2021/09/03 11:42:40;;;;;;;3.20;3.00;;;29.30;60.70;;;;;;5058030;28;20199;-87
2021/09/03 11:45:29;;;;;;;2.72;2.63;;;29.10;62.80;;;;;;5057905;28;20048;-86
2021/09/03 11:48:02;;;;;;;4.82;3.45;;;29.10;60.40;;;;;;5057863;28;20135;-87
2021/09/03 11:50:37;;;;;;;3.10;2.90;;;28.70;61.90;;;;;;5075632;28;20450;-87
2021/09/03 11:53:15;;;;;;;3.05;2.65;;;28.90;63.90;;;;;;5075474;28;20086;-86
2021/09/03 11:55:48;;;;;;;2.95;2.70;;;29.70;62.00;;;;;;5057698;28;20055;-87
2021/09/03 11:58:19;;;;;;;3.72;3.33;;;30.00;59.70;;;;;;5053843;28;20136;-87
2021/09/03 12:00:55;;;;;;;2.75;2.65;;;29.90;59.30;;;;;;5075011;28;20053;-88
2021/09/03 12:03:33;;;;;;;3.90;3.10;;;29.40;60.00;;;;;;5057767;28;20049;-86
2021/09/03 12:06:04;;;;;;;3.38;3.00;;;29.40;62.30;;;;;;5057272;28;20048;-87
2021/09/03 12:08:35;;;;;;;3.28;2.97;;;29.20;63.00;;;;;;5057254;28;20053;-85
2021/09/03 12:11:04;;;;;;;3.17;2.97;;;29.30;62.30;;;;;;5074720;28;20040;-86
2021/09/03 12:13:37;;;;;;;3.08;2.95;;;29.50;59.90;;;;;;5057383;28;20052;-86
2021/09/03 12:16:09;;;;;;;5.40;3.00;;;29.50;62.00;;;;;;5057352;28;20045;-86
2021/09/03 12:18:38;;;;;;;3.30;3.10;;;29.50;61.30;;;;;;5055968;28;20419;-85
2021/09/03 12:21:10;;;;;;;3.42;3.10;;;29.50;62.10;;;;;;5056513;28;20071;-86
2021/09/03 12:23:44;;;;;;;2.83;2.63;;;29.10;60.10;;;;;;5057764;28;20053;-85
2021/09/03 12:26:18;;;;;;;5.07;2.88;;;28.50;62.80;;;;;;5056614;28;20531;-86
2021/09/03 12:28:48;;;;;;;3.20;3.00;;;28.30;62.90;;;;;;5056620;28;20056;-85
2021/09/03 12:31:22;;;;;;;2.90;2.70;;;28.10;63.70;;;;;;5073740;28;20056;-83
2021/09/03 12:33:53;;;;;;;3.05;2.85;;;28.10;65.20;;;;;;5074198;28;20048;-85
2021/09/03 12:36:34;;;;;;;3.20;2.90;;;28.10;66.30;;;;;;5056718;28;20048;-87
2021/09/03 12:39:12;;;;;;;4.07;3.33;;;27.90;65.50;;;;;;5056772;28;20554;-86
2021/09/03 12:41:42;;;;;;;3.35;3.15;;;27.90;67.40;;;;;;5056987;28;20136;-84
2021/09/03 12:44:11;;;;;;;5.18;3.05;;;27.60;68.10;;;;;;5056769;28;20054;-87
2021/09/03 12:46:44;;;;;;;4.80;3.30;;;27.30;66.00;;;;;;5056483;28;20052;-84